Time;durP1;ratioP1;P1;durP2;ratioP2;P2;SDS_P1;SDS_P2;PMS_P1;PMS_P2;Temp;Humidity;BMP_temperature;BMP_pressure;BME280_temperature;BME280_humidity;BME280_pressure;Samples;Min_cycle;Max_cycle;Signal;HPM_P1;HPM_P2
2022/11/08 00:02:14;;;;;;;;;7.25;7.00;;;;;13.83;62.63;100466.28;4962409;28;45233;-64
2022/11/08 00:04:39;;;;;;;;;5.75;5.25;;;;;13.81;62.38;100462.81;4962497;28;46281;-64
2022/11/08 00:15:16;;;;;;;;;9.00;7.25;;;;;13.72;62.86;100448.19;4962099;28;45747;-64
2022/11/08 00:17:42;;;;;;;;;7.00;6.25;;;;;13.68;62.21;100435.97;4962162;28;49260;-64
2022/11/08 00:20:08;;;;;;;;;10.50;8.50;;;;;13.73;62.28;100434.03;4962331;28;45268;-64
2022/11/08 00:22:34;;;;;;;;;8.00;6.00;;;;;13.68;62.63;100424.53;4962412;28;45693;-63
2022/11/08 00:24:59;;;;;;;;;7.25;7.00;;;;;13.69;62.60;100424.50;4962196;28;46042;-64
2022/11/08 00:27:26;;;;;;;;;7.00;5.75;;;;;13.70;62.32;100427.97;4960950;28;45275;-64
2022/11/08 00:29:51;;;;;;;;;7.00;6.00;;;;;13.65;62.27;100409.66;4962193;28;45235;-64
2022/11/08 00:32:20;;;;;;;;;5.75;5.00;;;;;13.67;62.55;100414.91;4962175;28;45218;-64
2022/11/08 00:34:47;;;;;;;;;7.00;6.00;;;;;13.64;62.28;100416.72;4962054;28;45407;-64
2022/11/08 00:37:13;;;;;;;;;10.75;7.50;;;;;13.63;62.09;100417.66;4962056;28;45263;-64
2022/11/08 00:39:39;;;;;;;;;8.00;6.75;;;;;13.62;62.60;100397.44;4949281;28;45168;-64
2022/11/08 00:42:04;;;;;;;;;6.50;5.25;;;;;13.62;62.42;100392.16;4961836;28;45227;-64
2022/11/08 00:44:30;;;;;;;;;7.00;6.00;;;;;13.59;62.20;100389.59;4961662;28;45320;-64
2022/11/08 00:46:55;;;;;;;;;7.00;5.75;;;;;13.55;62.56;100376.56;4961757;28;45234;-64
2022/11/08 00:49:21;;;;;;;;;5.75;5.25;;;;;13.57;62.36;100372.97;4961724;28;45406;-64
2022/11/08 00:51:46;;;;;;;;;7.25;7.25;;;;;13.54;62.60;100359.00;4961983;28;45354;-64
2022/11/08 00:54:14;;;;;;;;;7.25;7.25;;;;;13.54;62.13;100362.47;4961652;28;46177;-63
2022/11/08 00:56:40;;;;;;;;;6.00;5.00;;;;;13.52;62.46;100363.44;4962013;28;45322;-64
2022/11/08 00:59:05;;;;;;;;;8.50;6.00;;;;;13.47;62.82;100351.28;4961413;28;45311;-64
2022/11/08 01:01:31;;;;;;;;;5.50;5.50;;;;;13.43;62.34;100349.66;4961715;28;45337;-63
2022/11/08 01:03:56;;;;;;;;;6.00;6.00;;;;;13.47;62.56;100342.47;4961547;28;45370;-64
2022/11/08 01:06:23;;;;;;;;;6.25;6.00;;;;;13.44;62.06;100335.50;4960452;28;45442;-64
2022/11/08 01:08:49;;;;;;;;;5.00;5.00;;;;;13.44;62.13;100351.34;4961637;28;45287;-63
2022/11/08 01:11:19;;;;;;;;;5.50;5.00;;;;;13.42;62.39;100342.63;4961542;28;45231;-64
2022/11/08 01:13:45;;;;;;;;;8.00;6.00;;;;;13.40;61.94;100359.44;4961321;28;46382;-64
2022/11/08 01:16:14;;;;;;;;;5.00;2.00;;;;;13.40;62.48;100354.16;4961681;28;45295;-64
2022/11/08 01:18:41;;;;;;;;;6.00;5.00;;;;;13.37;62.43;100348.94;4961592;28;45220;-63
2022/11/08 01:21:07;;;;;;;;;8.75;7.00;;;;;13.36;62.29;100344.56;4961306;28;46417;-63
2022/11/08 01:23:33;;;;;;;;;7.25;6.50;;;;;13.35;62.47;100332.31;4961448;28;46168;-64
2022/11/08 01:26:07;;;;;;;;;8.00;6.75;;;;;13.31;62.20;100337.66;4961188;28;45327;-64
2022/11/08 01:28:34;;;;;;;;;5.00;5.00;;;;;13.29;62.56;100331.56;4961349;28;45460;-64
2022/11/08 01:31:11;;;;;;;;;7.00;5.25;;;;;13.30;62.20;100335.09;4959945;28;45437;-64
2022/11/08 01:33:37;;;;;;;;;7.00;5.00;;;;;13.29;61.87;100325.44;4961334;28;46461;-63
2022/11/08 01:36:10;;;;;;;;;6.00;4.50;;;;;13.28;62.15;100327.22;4961059;28;45252;-63
2022/11/08 01:38:36;;;;;;;;;6.00;5.25;;;;;13.25;62.28;100324.66;4951053;28;45283;-64
2022/11/08 01:41:01;;;;;;;;;5.75;4.50;;;;;13.26;61.88;100331.66;4957551;28;45411;-63
2022/11/08 01:43:29;;;;;;;;;8.50;7.00;;;;;13.25;61.88;100327.31;4961026;28;45383;-64
2022/11/08 01:46:17;;;;;;;;;5.25;5.25;;;;;13.23;62.01;100342.34;4961179;28;45245;-64
2022/11/08 01:49:21;;;;;;;;;5.00;5.00;;;;;13.23;62.32;100341.47;4961140;28;45442;-64
2022/11/08 01:52:20;;;;;;;;;5.50;5.00;;;;;13.22;62.21;100335.31;4960201;28;45494;-64
2022/11/08 01:54:52;;;;;;;;;6.00;6.00;;;;;13.20;62.00;100328.38;4960944;28;46173;-64
2022/11/08 01:57:48;;;;;;;;;6.25;4.00;;;;;13.21;62.17;100317.75;4960694;28;45366;-63
2022/11/08 02:00:15;;;;;;;;;5.25;3.00;;;;;13.20;62.22;100323.94;4959602;28;45369;-64
2022/11/08 02:02:42;;;;;;;;;5.00;5.00;;;;;13.20;62.35;100320.47;4960730;28;45263;-63
2022/11/08 02:05:23;;;;;;;;;5.00;5.00;;;;;13.17;62.21;100309.09;4960810;28;46310;-64
2022/11/08 02:08:08;;;;;;;;;5.00;5.00;;;;;13.17;62.09;100317.00;4960801;28;45386;-64
2022/11/08 02:10:42;;;;;;;;;6.00;5.00;;;;;13.16;62.29;100311.78;4960951;28;45492;-64
2022/11/08 02:13:12;;;;;;;;;5.00;4.75;;;;;13.13;61.88;100314.50;4960453;28;45516;-63
2022/11/08 02:15:38;;;;;;;;;4.50;4.50;;;;;13.13;62.22;100296.03;4960750;28;45324;-64
2022/11/08 02:18:04;;;;;;;;;6.25;4.75;;;;;13.09;62.15;100283.84;4960640;28;45239;-64
2022/11/08 02:20:31;;;;;;;;;5.75;5.00;;;;;13.07;61.68;100291.81;4960792;28;45520;-64
2022/11/08 02:23:10;;;;;;;;;6.25;5.00;;;;;13.02;61.99;100288.47;4960697;28;45390;-64
2022/11/08 02:25:36;;;;;;;;;6.75;6.75;;;;;12.98;61.85;100266.59;4960604;28;46398;-64
2022/11/08 02:28:01;;;;;;;;;4.00;4.00;;;;;13.00;62.06;100266.53;4960540;28;45369;-64
2022/11/08 02:30:37;;;;;;;;;5.25;5.00;;;;;12.98;61.83;100263.97;4960670;28;45313;-64
2022/11/08 02:33:22;;;;;;;;;6.50;4.50;;;;;12.98;62.02;100261.31;4960619;28;45253;-64
2022/11/08 02:35:52;;;;;;;;;4.50;4.50;;;;;12.96;62.25;100257.00;4960557;28;46133;-64
2022/11/08 02:38:17;;;;;;;;;8.00;5.00;;;;;12.94;62.04;100254.44;4953313;28;45371;-68
2022/11/08 02:40:51;;;;;;;;;5.00;5.00;;;;;12.90;61.85;100252.78;4954682;28;45333;-65
2022/11/08 02:43:17;;;;;;;;;4.00;3.75;;;;;12.91;61.79;100238.69;4960355;28;45252;-65
2022/11/08 02:45:43;;;;;;;;;3.25;3.25;;;;;12.92;61.83;100229.88;4960324;28;46103;-65
2022/11/08 02:48:09;;;;;;;;;6.00;5.75;;;;;12.89;61.61;100229.94;4960540;28;45375;-64
2022/11/08 02:50:35;;;;;;;;;4.75;4.75;;;;;12.88;61.87;100240.56;4960428;28;45282;-64
2022/11/08 02:53:01;;;;;;;;;4.50;4.25;;;;;12.86;61.63;100235.34;4960329;28;45275;-65
2022/11/08 02:55:28;;;;;;;;;7.00;4.75;;;;;12.89;61.69;100226.47;4960176;28;45480;-64
2022/11/08 02:57:53;;;;;;;;;6.25;5.00;;;;;12.88;61.50;100227.38;4960390;28;45257;-64
2022/11/08 03:00:18;;;;;;;;;3.50;3.50;;;;;12.89;61.46;100232.59;4960157;28;45156;-64
2022/11/08 03:02:44;;;;;;;;;4.50;3.50;;;;;12.89;61.68;100221.19;4960081;28;45246;-64
2022/11/08 03:05:09;;;;;;;;;3.50;3.50;;;;;12.83;61.71;100207.28;4960202;28;45312;-64
2022/11/08 03:07:34;;;;;;;;;6.75;5.50;;;;;12.88;61.62;100208.91;4959994;28;55070;-65
2022/11/08 03:09:59;;;;;;;;;5.00;4.00;;;;;12.87;61.67;100218.59;4960046;28;45840;-64
2022/11/08 03:12:25;;;;;;;;;3.50;3.50;;;;;12.88;61.55;100207.16;4963117;28;45367;-64
2022/11/08 03:14:50;;;;;;;;;1.00;1.00;;;;;12.86;61.26;100205.47;4963222;28;45215;-64
2022/11/08 03:17:15;;;;;;;;;6.00;4.50;;;;;12.81;61.43;100201.19;4962192;28;45175;-64
2022/11/08 03:19:41;;;;;;;;;4.25;4.00;;;;;12.86;61.07;100206.34;4963403;28;45474;-64
2022/11/08 03:22:07;;;;;;;;;4.00;4.00;;;;;12.89;61.15;100216.78;4950550;28;45412;-64
2022/11/08 03:24:32;;;;;;;;;4.25;4.00;;;;;12.89;60.95;100214.13;4963369;28;45311;-64
2022/11/08 03:26:58;;;;;;;;;4.25;4.25;;;;;12.89;61.32;100213.28;4963214;28;45571;-64
2022/11/08 03:29:23;;;;;;;;;2.75;2.75;;;;;12.90;61.29;100221.13;4963338;28;45516;-64
2022/11/08 03:31:49;;;;;;;;;5.00;4.25;;;;;12.90;61.24;100220.28;4963238;28;45314;-64
2022/11/08 03:34:14;;;;;;;;;4.75;4.25;;;;;12.82;61.34;100207.34;4963244;28;45369;-64
2022/11/08 03:36:39;;;;;;;;;4.50;4.50;;;;;12.87;61.19;100229.16;4963119;28;45307;-63
2022/11/08 03:39:05;;;;;;;;;6.00;5.00;;;;;12.85;61.13;100228.34;4933685;28;45443;-63
2022/11/08 03:41:30;;;;;;;;;4.75;3.50;;;;;12.86;60.79;100218.66;4963086;28;45286;-64
2022/11/08 03:43:55;;;;;;;;;5.25;4.25;;;;;12.91;61.05;100225.50;4961345;28;46968;-64
2022/11/08 03:46:21;;;;;;;;;4.00;3.50;;;;;12.84;61.04;100229.25;4962985;28;45482;-64
2022/11/08 03:48:46;;;;;;;;;4.00;4.00;;;;;12.88;61.05;100222.09;4963148;28;45417;-64
2022/11/08 03:51:11;;;;;;;;;4.50;4.50;;;;;12.89;61.05;100222.03;4962756;28;45298;-64
2022/11/08 03:53:37;;;;;;;;;4.75;4.50;;;;;12.91;60.82;100220.22;4961450;28;46197;-64
2022/11/08 03:56:02;;;;;;;;;4.75;4.25;;;;;12.90;60.71;100218.50;4962624;28;45319;-63
2022/11/08 03:58:28;;;;;;;;;5.00;4.00;;;;;12.89;60.76;100222.03;4962778;28;45832;-64
2022/11/08 04:00:53;;;;;;;;;5.00;5.00;;;;;12.91;60.61;100224.66;4962748;28;45526;-64
2022/11/08 04:03:18;;;;;;;;;5.00;5.00;;;;;12.89;61.02;100216.78;4962588;28;45243;-64
2022/11/08 04:05:44;;;;;;;;;2.00;2.00;;;;;12.88;60.88;100222.09;4962662;28;45269;-64
2022/11/08 04:08:09;;;;;;;;;4.75;4.00;;;;;12.90;60.62;100236.09;4962938;28;45196;-64
2022/11/08 04:10:35;;;;;;;;;3.00;3.00;;;;;12.92;60.48;100243.06;4962490;28;45160;-64
2022/11/08 04:15:50;;;;;;;;;4.00;4.00;;;;;12.89;60.46;100234.38;4962561;28;45223;-64
2022/11/08 04:21:18;;;;;;;;;5.00;3.00;;;;;12.85;60.68;100212.50;4962324;28;45327;-64
2022/11/08 04:23:44;;;;;;;;;4.00;3.50;;;;;12.90;60.69;100215.00;4961285;28;46255;-64
2022/11/08 04:26:12;;;;;;;;;3.25;3.25;;;;;12.90;60.67;100217.66;4962223;28;45342;-64
2022/11/08 04:28:39;;;;;;;;;3.50;3.50;;;;;12.92;60.37;100218.47;4962058;28;45426;-64
2022/11/08 04:31:08;;;;;;;;;6.25;5.00;;;;;12.91;60.28;100225.50;4962134;28;45182;-64
2022/11/08 04:33:33;;;;;;;;;4.00;4.00;;;;;12.92;60.13;100227.22;4962133;28;46321;-64
2022/11/08 04:36:10;;;;;;;;;4.00;4.00;;;;;12.89;60.80;100229.94;4962083;28;45439;-63
2022/11/08 04:38:36;;;;;;;;;6.00;3.50;;;;;12.92;60.26;100231.66;4951994;28;45359;-63
2022/11/08 04:41:01;;;;;;;;;5.00;5.00;;;;;12.92;60.33;100234.28;4958542;28;45395;-63
2022/11/08 04:43:27;;;;;;;;;6.50;4.00;;;;;12.90;60.16;100220.28;4961803;28;47249;-64
2022/11/08 04:45:58;;;;;;;;;5.75;5.25;;;;;12.91;60.13;100220.22;4962019;28;45255;-62
2022/11/08 04:48:24;;;;;;;;;5.50;4.50;;;;;12.92;60.35;100224.59;4962057;28;45423;-63
2022/11/08 04:50:49;;;;;;;;;5.50;5.50;;;;;12.91;60.48;100222.00;4961852;28;45231;-62
2022/11/08 04:53:14;;;;;;;;;5.00;4.25;;;;;12.88;60.26;100212.44;4961856;28;45441;-63
2022/11/08 04:55:40;;;;;;;;;4.00;4.00;;;;;12.89;60.11;100216.78;4961602;28;45368;-63
2022/11/08 04:58:05;;;;;;;;;4.00;4.00;;;;;12.87;60.32;100221.25;4961710;28;45692;-63
2022/11/08 05:00:30;;;;;;;;;4.25;4.00;;;;;12.88;60.32;100217.72;4961606;28;45377;-63
2022/11/08 05:02:55;;;;;;;;;4.25;3.25;;;;;12.89;60.24;100227.31;4961003;28;61149;-63
2022/11/08 05:05:21;;;;;;;;;5.00;3.25;;;;;12.86;59.98;100224.78;4961570;28;46695;-63
2022/11/08 05:07:46;;;;;;;;;4.75;4.00;;;;;12.88;60.23;100228.25;4961960;28;45306;-63
2022/11/08 05:10:12;;;;;;;;;5.00;5.00;;;;;12.86;60.32;100231.84;4961622;28;45612;-63
2022/11/08 05:12:37;;;;;;;;;5.25;4.25;;;;;12.87;60.27;100221.25;4961463;28;46976;-63
2022/11/08 05:15:03;;;;;;;;;6.00;6.00;;;;;12.85;60.06;100215.16;4961296;28;45344;-63
2022/11/08 05:17:28;;;;;;;;;7.50;5.75;;;;;12.85;59.97;100204.59;4961706;28;45252;-62
2022/11/08 05:25:21;;;;;;;;;4.75;3.00;;;;;12.82;59.96;100210.00;4961370;28;45325;-63
2022/11/08 05:27:47;;;;;;;;;5.00;5.00;;;;;12.84;59.80;100208.16;4961191;28;45551;-63
2022/11/08 05:30:12;;;;;;;;;5.00;4.00;;;;;12.83;59.74;100214.34;4961217;28;48206;-63
2022/11/08 05:32:37;;;;;;;;;6.25;5.00;;;;;12.83;60.02;100215.22;4961341;28;46086;-64
2022/11/08 05:35:03;;;;;;;;;6.00;3.50;;;;;12.80;60.00;100209.16;4961322;28;45237;-63
2022/11/08 05:37:28;;;;;;;;;5.00;4.00;;;;;12.83;59.82;100222.25;4960284;28;45501;-63
2022/11/08 05:39:53;;;;;;;;;5.00;4.00;;;;;12.82;60.04;100223.19;4947472;28;45445;-63
2022/11/08 05:42:19;;;;;;;;;4.00;4.00;;;;;12.84;59.96;100222.22;4961078;28;45279;-63
2022/11/08 05:44:44;;;;;;;;;4.00;3.75;;;;;12.83;59.94;100219.63;4961210;28;45350;-64
2022/11/08 05:47:09;;;;;;;;;5.75;5.25;;;;;12.78;60.04;100214.50;4961298;28;45285;-64
2022/11/08 05:49:35;;;;;;;;;3.00;3.00;;;;;12.81;60.12;100221.44;4961303;28;45283;-63
2022/11/08 05:52:00;;;;;;;;;5.25;4.25;;;;;12.82;59.73;100210.84;4961042;28;45314;-63
2022/11/08 05:54:25;;;;;;;;;6.00;4.25;;;;;12.80;59.94;100212.69;4960831;28;50523;-64
2022/11/08 05:56:51;;;;;;;;;4.25;4.25;;;;;12.81;59.87;100208.25;4961078;28;46428;-64
2022/11/08 05:59:16;;;;;;;;;3.25;3.25;;;;;12.81;59.59;100206.47;4959471;28;45587;-64
2022/11/08 06:01:41;;;;;;;;;3.50;2.25;;;;;12.81;59.65;100208.25;4960845;28;45176;-63
2022/11/08 06:04:06;;;;;;;;;5.25;5.25;;;;;12.79;59.81;100224.13;4960834;28;45199;-66
2022/11/08 06:06:32;;;;;;;;;5.50;5.00;;;;;12.80;59.79;100212.69;4961284;28;45328;-64
2022/11/08 06:08:57;;;;;;;;;5.00;5.00;;;;;12.80;59.65;100210.03;4960918;28;45576;-64
2022/11/08 06:11:25;;;;;;;;;4.75;4.00;;;;;12.80;59.65;100209.16;4960622;28;45291;-64
2022/11/08 06:13:52;;;;;;;;;6.00;5.00;;;;;12.79;59.50;100210.94;4959502;28;45411;-65
2022/11/08 06:16:19;;;;;;;;;4.00;4.00;;;;;12.77;59.66;100194.31;4960900;28;45476;-65
2022/11/08 06:18:45;;;;;;;;;5.50;3.75;;;;;12.80;59.55;100199.50;4960682;28;45488;-64
2022/11/08 06:21:13;;;;;;;;;5.50;4.50;;;;;12.80;59.60;100196.88;4960432;28;47444;-64
2022/11/08 06:23:39;;;;;;;;;6.00;4.00;;;;;12.78;59.51;100200.44;4960737;28;45510;-64
2022/11/08 06:26:05;;;;;;;;;6.75;5.00;;;;;12.80;59.50;100199.50;4960672;28;45410;-65
2022/11/08 06:28:31;;;;;;;;;4.00;4.00;;;;;12.79;59.72;100208.31;4959159;28;45885;-64
2022/11/08 06:31:01;;;;;;;;;5.00;3.75;;;;;12.79;59.71;100210.94;4959310;28;47304;-65
2022/11/08 06:33:27;;;;;;;;;5.50;4.00;;;;;12.80;59.56;100206.53;4960492;28;45333;-65
2022/11/08 06:35:52;;;;;;;;;5.00;5.00;;;;;12.79;59.47;100210.94;4960505;28;45235;-64
2022/11/08 06:38:18;;;;;;;;;6.00;5.00;;;;;12.78;59.68;100213.59;4952868;28;45304;-64
2022/11/08 06:40:43;;;;;;;;;3.00;3.00;;;;;12.80;59.55;100211.81;4954720;28;45548;-64
2022/11/08 06:43:11;;;;;;;;;6.00;3.00;;;;;12.79;59.52;100212.69;4960259;28;45348;-63
2022/11/08 06:45:37;;;;;;;;;3.25;3.00;;;;;12.79;59.39;100215.34;4961287;28;45310;-63
2022/11/08 06:48:04;;;;;;;;;3.00;3.00;;;;;12.77;59.30;100222.47;4963828;28;45351;-63
2022/11/08 06:50:31;;;;;;;;;5.50;5.50;;;;;12.77;59.57;100228.59;4962379;28;48646;-63
2022/11/08 06:53:14;;;;;;;;;8.00;5.50;;;;;12.79;59.34;100228.53;4963723;28;45255;-63
2022/11/08 06:55:40;;;;;;;;;19.75;16.75;;;;;12.76;59.69;100245.31;4963524;28;45248;-64
2022/11/08 06:58:05;;;;;;;;;4.00;3.00;;;;;12.74;59.67;100248.91;4963401;28;45239;-63
2022/11/08 07:00:31;;;;;;;;;4.00;3.00;;;;;12.76;59.51;100239.19;4962175;28;48357;-64
2022/11/08 07:03:02;;;;;;;;;4.25;3.75;;;;;12.76;59.46;100240.03;4963442;28;45514;-63
2022/11/08 07:05:28;;;;;;;;;4.50;4.00;;;;;12.77;59.30;100235.63;4962427;28;45390;-63
2022/11/08 07:07:57;;;;;;;;;4.75;4.75;;;;;12.77;59.42;100238.28;4963619;28;45379;-63
2022/11/08 07:10:25;;;;;;;;;4.50;4.50;;;;;12.78;59.34;100234.69;4963263;28;46275;-63
2022/11/08 07:13:02;;;;;;;;;10.00;9.25;;;;;12.79;59.35;100244.34;4963280;28;45819;-63
2022/11/08 07:15:28;;;;;;;;;6.50;6.00;;;;;12.79;59.47;100239.06;4962038;28;45354;-63
2022/11/08 07:17:58;;;;;;;;;4.00;4.00;;;;;12.79;59.59;100241.72;4963507;28;45252;-63
2022/11/08 07:20:24;;;;;;;;;6.00;4.75;;;;;12.80;59.37;100232.91;4961798;28;47302;-62
2022/11/08 07:22:53;;;;;;;;;5.25;5.00;;;;;12.82;59.50;100233.72;4961843;28;45417;-63
2022/11/08 07:25:19;;;;;;;;;4.00;4.00;;;;;12.83;59.78;100265.31;4963533;28;45272;-62
2022/11/08 07:27:44;;;;;;;;;5.75;4.75;;;;;12.80;59.48;100248.72;4962917;28;45422;-63
2022/11/08 07:30:10;;;;;;;;;4.75;4.50;;;;;12.87;59.30;100252.91;4963075;28;45226;-64
2022/11/08 07:32:35;;;;;;;;;4.00;3.75;;;;;12.88;59.19;100248.47;4963054;28;45284;-63
2022/11/08 07:35:01;;;;;;;;;4.75;4.75;;;;;12.91;59.33;100245.75;4963374;28;45224;-64
2022/11/08 07:37:26;;;;;;;;;4.50;4.50;;;;;12.92;59.19;100237.78;4962791;28;45211;-63
2022/11/08 07:39:51;;;;;;;;;6.50;5.00;;;;;12.92;59.55;100245.69;4950448;28;46093;-63
2022/11/08 07:42:16;;;;;;;;;5.75;4.75;;;;;12.89;59.29;100255.47;4962780;28;45398;-63
2022/11/08 07:44:42;;;;;;;;;5.75;5.25;;;;;12.90;59.57;100254.56;4962938;28;45261;-64
2022/11/08 07:47:07;;;;;;;;;6.00;5.00;;;;;12.86;59.58;100251.16;4963036;28;45198;-63
2022/11/08 07:49:34;;;;;;;;;15.00;11.50;;;;;12.90;59.52;100247.50;4962915;28;45266;-63
2022/11/08 07:51:59;;;;;;;;;3.00;3.00;;;;;12.93;59.41;100246.53;4961808;28;45413;-63
2022/11/08 07:54:25;;;;;;;;;4.00;3.25;;;;;12.93;59.62;100262.38;4962986;28;45361;-63
2022/11/08 07:56:50;;;;;;;;;5.00;4.00;;;;;12.94;59.52;100258.81;4962726;28;45253;-64
2022/11/08 07:59:16;;;;;;;;;4.50;4.50;;;;;12.94;59.66;100258.81;4961113;28;45355;-63
2022/11/08 08:01:41;;;;;;;;;5.00;5.00;;;;;12.97;59.46;100264.03;4962546;28;45503;-63
2022/11/08 08:04:08;;;;;;;;;4.25;4.25;;;;;12.99;59.67;100262.19;4961100;28;57898;-63
2022/11/08 08:06:33;;;;;;;;;4.25;4.25;;;;;12.98;59.61;100263.09;4963015;28;45394;-63
2022/11/08 08:08:59;;;;;;;;;5.50;3.75;;;;;12.98;59.73;100265.72;4962433;28;45357;-64
2022/11/08 08:11:24;;;;;;;;;4.75;4.25;;;;;13.04;59.84;100254.13;4962596;28;45185;-63
2022/11/08 08:13:49;;;;;;;;;5.00;3.50;;;;;13.07;59.71;100248.75;4962463;28;45235;-63
2022/11/08 08:16:15;;;;;;;;;5.25;3.75;;;;;13.14;59.39;100256.44;4962541;28;45161;-64
2022/11/08 08:18:40;;;;;;;;;6.75;5.75;;;;;13.14;59.79;100255.53;4962391;28;46244;-63
2022/11/08 08:21:05;;;;;;;;;3.75;3.75;;;;;13.14;59.45;100248.50;4962252;28;46935;-63
2022/11/08 08:23:30;;;;;;;;;5.25;4.00;;;;;13.15;59.63;100254.63;4962521;28;45204;-63
2022/11/08 08:25:56;;;;;;;;;6.25;4.75;;;;;13.18;59.58;100254.53;4962336;28;45245;-63
2022/11/08 08:28:21;;;;;;;;;7.00;6.50;;;;;13.18;59.90;100254.53;4961916;28;46242;-63
2022/11/08 08:30:47;;;;;;;;;5.25;4.25;;;;;13.22;59.73;100242.97;4962308;28;45319;-63
2022/11/08 08:33:15;;;;;;;;;5.00;4.00;;;;;13.28;59.69;100249.81;4962417;28;45328;-64
2022/11/08 08:35:43;;;;;;;;;5.00;3.00;;;;;13.35;59.77;100255.78;4962364;28;45468;-64
2022/11/08 08:38:10;;;;;;;;;4.25;4.25;;;;;13.35;59.89;100232.88;4954324;28;46358;-63
2022/11/08 08:40:36;;;;;;;;;7.00;5.25;;;;;13.33;59.79;100239.97;4955166;28;45446;-63
2022/11/08 08:43:03;;;;;;;;;3.00;3.00;;;;;13.39;59.77;100246.88;4961834;28;45231;-63
2022/11/08 08:45:30;;;;;;;;;3.00;3.00;;;;;13.42;59.71;100234.44;4962085;28;46011;-63
2022/11/08 08:47:56;;;;;;;;;3.50;2.50;;;;;13.47;60.26;100243.06;4961965;28;45469;-63
2022/11/08 08:50:23;;;;;;;;;3.00;3.00;;;;;13.50;60.24;100247.34;4961878;28;45337;-63
2022/11/08 08:52:49;;;;;;;;;1.75;1.75;;;;;13.54;60.17;100246.34;4962263;28;45616;-63
2022/11/08 08:55:15;;;;;;;;;3.50;3.50;;;;;13.57;59.85;100246.25;4961927;28;45441;-63
2022/11/08 08:57:45;;;;;;;;;3.00;3.00;;;;;13.65;60.21;100240.69;4961772;28;45319;-63
2022/11/08 09:00:12;;;;;;;;;2.25;2.25;;;;;13.69;60.07;100230.88;4961767;28;45453;-63
2022/11/08 09:02:37;;;;;;;;;5.50;3.50;;;;;13.71;60.08;100235.19;4961619;28;45314;-63
2022/11/08 09:05:02;;;;;;;;;2.50;2.50;;;;;13.76;59.79;100248.22;4961399;28;51086;-63
2022/11/08 09:07:28;;;;;;;;;5.50;5.50;;;;;13.82;60.09;100243.59;4962005;28;45234;-63
2022/11/08 09:09:53;;;;;;;;;3.50;3.50;;;;;13.87;59.79;100248.69;4961086;28;47522;-63
2022/11/08 09:12:18;;;;;;;;;2.75;2.50;;;;;13.89;59.80;100236.31;4961776;28;45277;-64
2022/11/08 09:14:43;;;;;;;;;3.00;3.00;;;;;14.02;60.00;100254.38;4961376;28;45519;-63
2022/11/08 09:17:09;;;;;;;;;4.50;3.75;;;;;14.05;59.69;100249.84;4961562;28;49063;-62
2022/11/08 09:19:34;;;;;;;;;3.00;3.00;;;;;14.14;59.64;100243.34;4961440;28;48626;-63
2022/11/08 09:21:59;;;;;;;;;4.00;4.00;;;;;14.24;59.50;100234.16;4961702;28;45204;-63
2022/11/08 09:24:25;;;;;;;;;5.00;3.00;;;;;14.24;60.02;100239.44;4961444;28;51172;-63
2022/11/08 09:26:50;;;;;;;;;3.00;3.00;;;;;14.32;60.09;100249.72;4960981;28;52186;-63
2022/11/08 09:29:15;;;;;;;;;3.75;3.00;;;;;14.44;59.84;100240.47;4961461;28;45375;-63
2022/11/08 09:31:41;;;;;;;;;3.25;3.00;;;;;14.47;60.05;100232.41;4960135;28;45266;-63
2022/11/08 09:34:06;;;;;;;;;4.00;4.00;;;;;14.53;59.68;100241.91;4961669;28;45188;-63
2022/11/08 09:36:31;;;;;;;;;6.00;4.50;;;;;14.60;59.49;100256.59;4961386;28;46125;-63
2022/11/08 09:38:57;;;;;;;;;2.75;2.75;;;;;14.67;60.20;100268.69;4949760;28;45282;-63
2022/11/08 09:41:50;;;;;;;;;5.00;4.00;;;;;14.74;60.06;100249.03;4960640;28;45307;-64
2022/11/08 09:44:37;;;;;;;;;3.75;3.75;;;;;14.87;59.91;100246.75;4961054;28;45160;-64
2022/11/08 09:47:19;;;;;;;;;3.75;2.75;;;;;14.95;59.47;100249.09;4961007;28;46262;-63
2022/11/08 09:49:53;;;;;;;;;4.75;4.75;;;;;15.11;59.38;100265.22;4961434;28;45204;-64
2022/11/08 09:52:24;;;;;;;;;3.00;3.00;;;;;15.23;59.84;100262.06;4961143;28;45251;-64
2022/11/08 09:54:52;;;;;;;;;3.25;3.25;;;;;15.30;59.50;100262.66;4961183;28;45258;-64
2022/11/08 09:57:29;;;;;;;;;3.75;3.75;;;;;15.44;59.40;100255.03;4960637;28;46461;-63
2022/11/08 10:00:03;;;;;;;;;2.75;2.00;;;;;15.55;59.27;100245.75;4960750;28;45338;-64
2022/11/08 10:02:30;;;;;;;;;3.00;3.00;;;;;15.62;59.73;100244.56;4947992;28;45225;-63
2022/11/08 10:05:08;;;;;;;;;3.75;2.00;;;;;15.71;59.57;100251.25;4960962;28;45412;-63
2022/11/08 10:07:51;;;;;;;;;3.00;1.00;;;;;15.79;59.39;100259.72;4960847;28;46369;-64
2022/11/08 10:10:47;;;;;;;;;3.75;3.75;;;;;15.91;59.53;100264.53;4960750;28;45232;-63
2022/11/08 10:13:30;;;;;;;;;3.25;2.25;;;;;16.00;59.28;100251.78;4960654;28;45260;-64
2022/11/08 10:16:38;;;;;;;;;2.25;2.25;;;;;16.12;59.29;100245.09;4960960;28;45231;-64
2022/11/08 10:19:23;;;;;;;;;2.50;2.00;;;;;16.18;59.59;100266.00;4959309;28;45338;-64
2022/11/08 10:21:58;;;;;;;;;5.25;3.00;;;;;16.28;59.58;100262.00;4962853;28;45168;-64
2022/11/08 10:24:44;;;;;;;;;3.50;3.00;;;;;16.37;59.10;100242.16;4964569;28;45510;-64
2022/11/08 10:27:15;;;;;;;;;3.00;3.00;;;;;16.40;59.14;100242.00;4964057;28;45485;-64
2022/11/08 10:29:44;;;;;;;;;2.50;2.00;;;;;16.45;59.42;100268.34;4963802;28;45311;-64
2022/11/08 10:32:20;;;;;;;;;4.25;4.25;;;;;16.47;59.32;100250.56;4964207;28;45304;-64
2022/11/08 10:35:35;;;;;;;;;6.75;4.50;;;;;16.64;59.11;100253.28;4964004;28;45332;-64
2022/11/08 10:38:09;;;;;;;;;2.25;2.25;;;;;16.65;59.32;100249.69;4956770;28;45514;-63
2022/11/08 10:40:44;;;;;;;;;3.00;3.00;;;;;16.68;59.30;100248.72;4956721;28;46354;-63
2022/11/08 10:43:18;;;;;;;;;3.00;3.00;;;;;16.76;59.21;100251.84;4963718;28;45325;-63
2022/11/08 10:45:44;;;;;;;;;3.75;2.50;;;;;16.81;59.21;100251.63;4964054;28;45402;-63
2022/11/08 10:48:10;;;;;;;;;4.25;3.75;;;;;16.88;58.85;100242.44;4963929;28;45467;-63
2022/11/08 10:50:41;;;;;;;;;2.00;2.00;;;;;16.97;58.90;100249.97;4963912;28;45346;-63
2022/11/08 10:53:14;;;;;;;;;6.00;3.75;;;;;17.04;58.73;100255.84;4962372;28;45264;-63
2022/11/08 10:56:06;;;;;;;;;3.00;3.00;;;;;17.08;58.88;100251.25;4962184;28;45195;-63
2022/11/08 10:58:42;;;;;;;;;2.50;2.50;;;;;17.13;58.82;100239.47;4962943;28;45619;-63
2022/11/08 11:01:20;;;;;;;;;3.50;3.50;;;;;17.20;59.06;100238.22;4963328;28;46601;-63
2022/11/08 11:03:47;;;;;;;;;2.00;1.50;;;;;17.27;58.73;100238.78;4963436;28;45556;-63
2022/11/08 11:06:31;;;;;;;;;4.00;3.00;;;;;17.40;58.50;100246.97;4963819;28;46515;-63
2022/11/08 11:09:18;;;;;;;;;2.75;1.50;;;;;17.37;58.85;100225.88;4963495;28;45239;-63
2022/11/08 11:11:44;;;;;;;;;5.00;4.25;;;;;17.46;58.49;100217.47;4963133;28;46207;-64
2022/11/08 11:14:16;;;;;;;;;3.50;3.50;;;;;17.47;58.55;100213.88;4963204;28;45442;-63
2022/11/08 11:16:56;;;;;;;;;5.00;4.00;;;;;17.50;58.54;100204.88;4963468;28;45472;-64
2022/11/08 11:19:23;;;;;;;;;6.50;4.00;;;;;17.59;58.61;100217.69;4963316;28;45405;-64
2022/11/08 11:22:01;;;;;;;;;2.00;1.75;;;;;17.64;59.41;100228.06;4963002;28;46599;-63
2022/11/08 11:24:27;;;;;;;;;5.00;2.75;;;;;17.68;58.84;100222.53;4963271;28;45300;-62
2022/11/08 11:26:55;;;;;;;;;4.25;4.25;;;;;17.78;58.52;100222.03;4963042;28;45484;-63
2022/11/08 11:29:26;;;;;;;;;3.75;3.00;;;;;17.84;58.72;100219.06;4963058;28;45326;-63
2022/11/08 11:31:53;;;;;;;;;5.00;3.50;;;;;17.91;58.32;100211.63;4962729;28;45524;-63
2022/11/08 11:34:18;;;;;;;;;3.00;2.75;;;;;17.94;58.60;100207.03;4963126;28;45385;-63
2022/11/08 11:36:54;;;;;;;;;3.75;3.75;;;;;18.03;58.46;100211.00;4963287;28;45489;-63
2022/11/08 11:39:38;;;;;;;;;2.00;2.00;;;;;18.10;58.51;100219.50;4950863;28;45402;-63
2022/11/08 11:42:19;;;;;;;;;4.25;4.00;;;;;18.18;58.40;100228.78;4962799;28;46195;-63
2022/11/08 11:45:39;;;;;;;;;5.00;3.75;;;;;18.24;58.48;100224.06;4962929;28;45231;-63
2022/11/08 11:48:14;;;;;;;;;4.00;3.00;;;;;18.32;58.43;100224.50;4951229;28;45526;-64
2022/11/08 11:50:45;;;;;;;;;6.00;3.00;;;;;18.37;58.59;100205.66;4962885;28;45369;-64
2022/11/08 11:53:21;;;;;;;;;2.75;2.75;;;;;18.43;58.26;100216.78;4962849;28;46285;-63